createdAt,value
2018-03-16T00:00:06.386Z,8.0
2018-03-16T00:01:08.168Z,7.9
2018-03-16T00:02:09.811Z,7.9
2018-03-16T00:03:11.524Z,8.0
2018-03-16T00:04:13.150Z,7.9
2018-03-16T00:05:14.905Z,7.9
2018-03-16T00:06:16.522Z,7.9
2018-03-16T00:07:18.132Z,7.9
2018-03-16T00:08:19.746Z,8.0
2018-03-16T00:09:21.358Z,8.0
2018-03-16T00:10:22.966Z,8.0
2018-03-16T00:11:24.575Z,8.0
2018-03-16T00:12:26.192Z,8.0
2018-03-16T00:13:28.212Z,8.0
2018-03-16T00:14:30.738Z,8.0
2018-03-16T00:15:33.118Z,8.0
2018-03-16T00:16:35.139Z,8.0
2018-03-16T00:17:37.038Z,8.0
2018-03-16T00:18:39.167Z,8.0
2018-03-16T00:19:41.355Z,8.0
2018-03-16T00:20:43.669Z,8.1
2018-03-16T00:21:45.863Z,8.0
2018-03-16T00:22:48.151Z,8.1
2018-03-16T00:23:50.375Z,8.0
2018-03-16T00:24:52.279Z,8.0
2018-03-16T00:25:54.357Z,8.0
2018-03-16T00:26:56.843Z,8.0
2018-03-16T00:27:59.172Z,8.0
2018-03-16T00:29:00.933Z,8.1
2018-03-16T00:30:02.536Z,8.0
2018-03-16T00:31:04.149Z,7.9
2018-03-16T00:32:06.414Z,7.9
2018-03-16T00:33:08.805Z,7.9
2018-03-16T00:34:11.032Z,8.0
2018-03-16T00:35:13.205Z,8.0
2018-03-16T00:36:15.175Z,7.9
2018-03-16T00:37:17.495Z,8.0
2018-03-16T00:38:19.404Z,7.9
2018-03-16T00:39:21.738Z,8.0
2018-03-16T00:40:24.181Z,8.0
2018-03-16T00:41:25.959Z,8.0
2018-03-16T00:42:28.280Z,8.0
2018-03-16T00:43:30.042Z,8.0
2018-03-16T00:44:32.198Z,7.9
2018-03-16T00:45:34.982Z,8.0
2018-03-16T00:46:37.446Z,8.0
2018-03-16T00:47:40.866Z,8.1
2018-03-16T00:48:42.816Z,8.1
2018-03-16T00:49:44.446Z,8.1
2018-03-16T00:50:46.053Z,8.0
2018-03-16T00:51:48.193Z,8.1
2018-03-16T00:52:49.997Z,8.0
2018-03-16T00:53:52.372Z,8.0
2018-03-16T00:54:55.447Z,7.9
2018-03-16T00:55:57.516Z,7.9
2018-03-16T00:56:59.641Z,7.9
2018-03-16T00:58:02.532Z,7.8
2018-03-16T00:59:05.041Z,7.9
2018-03-16T01:00:07.197Z,7.9
2018-03-16T01:01:09.346Z,7.7
2018-03-16T01:02:11.250Z,7.7
2018-03-16T01:03:13.009Z,7.8
2018-03-16T01:04:15.178Z,7.8
2018-03-16T01:05:17.421Z,7.8
2018-03-16T01:06:19.709Z,7.9
2018-03-16T01:07:21.709Z,7.8
2018-03-16T01:08:23.322Z,7.8
2018-03-16T01:09:24.936Z,7.8
2018-03-16T01:10:26.548Z,7.8
2018-03-16T01:11:28.589Z,7.8
2018-03-16T01:12:30.862Z,7.9
2018-03-16T01:13:33.639Z,7.8
2018-03-16T01:14:36.079Z,7.7
2018-03-16T01:15:38.516Z,7.7
2018-03-16T01:16:40.592Z,7.7
2018-03-16T01:17:42.796Z,7.8
2018-03-16T01:18:44.826Z,7.8
2018-03-16T01:19:46.689Z,7.7
2018-03-16T01:20:48.997Z,7.7
2018-03-16T01:21:51.422Z,7.8
2018-03-16T01:22:53.770Z,7.7
2018-03-16T01:23:56.060Z,7.8
2018-03-16T01:24:57.971Z,7.7
2018-03-16T01:25:59.815Z,7.8
2018-03-16T01:27:02.183Z,7.7
2018-03-16T01:28:04.650Z,7.7
2018-03-16T01:29:07.037Z,7.7
2018-03-16T01:30:08.643Z,7.7
2018-03-16T01:31:10.260Z,7.7
2018-03-16T01:32:11.870Z,7.7
2018-03-16T01:33:13.476Z,7.6
2018-03-16T01:34:15.081Z,7.7
2018-03-16T01:35:16.695Z,7.6
2018-03-16T01:36:18.294Z,7.7
2018-03-16T01:37:19.909Z,7.5
2018-03-16T01:38:21.512Z,7.6
2018-03-16T01:39:23.129Z,7.6
2018-03-16T01:40:24.738Z,7.6
2018-03-16T01:41:26.348Z,7.6
2018-03-16T01:42:27.956Z,7.6
2018-03-16T01:43:29.566Z,7.6
2018-03-16T01:44:31.172Z,7.5
2018-03-16T01:45:32.780Z,7.5
2018-03-16T01:46:34.395Z,7.5
2018-03-16T01:47:36.002Z,7.5
2018-03-16T01:48:37.605Z,7.5
2018-03-16T01:49:39.220Z,7.6
2018-03-16T01:50:40.829Z,7.4
2018-03-16T01:51:42.441Z,7.5
2018-03-16T01:52:44.050Z,7.4
2018-03-16T01:53:45.664Z,7.4
2018-03-16T01:54:47.273Z,7.5
2018-03-16T01:55:48.874Z,7.4
2018-03-16T01:56:50.483Z,7.5
2018-03-16T01:57:52.097Z,7.5
2018-03-16T01:58:53.706Z,7.5
2018-03-16T01:59:55.314Z,7.5
2018-03-16T02:00:56.927Z,7.6
2018-03-16T02:01:58.542Z,7.5
2018-03-16T02:03:00.143Z,7.6
2018-03-16T02:04:01.760Z,7.6
2018-03-16T02:05:03.364Z,7.6
2018-03-16T02:06:04.969Z,7.6
2018-03-16T02:07:06.578Z,7.6
2018-03-16T02:08:08.188Z,7.5
2018-03-16T02:09:09.793Z,7.5
2018-03-16T02:10:11.407Z,7.5
2018-03-16T02:11:13.017Z,7.5
2018-03-16T02:12:14.623Z,7.5
2018-03-16T02:13:16.237Z,7.5
2018-03-16T02:14:17.841Z,7.5
2018-03-16T02:15:19.455Z,7.6
2018-03-16T02:16:21.061Z,7.5
2018-03-16T02:17:22.667Z,7.5
2018-03-16T02:18:24.279Z,7.6
2018-03-16T02:19:25.883Z,7.5
2018-03-16T02:20:27.497Z,7.4
2018-03-16T02:21:29.102Z,7.5
2018-03-16T02:22:30.719Z,7.5
2018-03-16T02:23:32.324Z,7.6
2018-03-16T02:24:33.936Z,7.6
2018-03-16T02:25:35.542Z,7.6
2018-03-16T02:26:37.153Z,7.6
2018-03-16T02:27:38.760Z,7.6
2018-03-16T02:28:40.374Z,7.6
2018-03-16T02:29:41.979Z,7.6
2018-03-16T02:30:43.595Z,7.4
2018-03-16T02:31:45.198Z,7.6
2018-03-16T02:32:47.538Z,7.6
2018-03-16T02:33:49.145Z,7.6
2018-03-16T02:34:50.754Z,7.6
2018-03-16T02:35:52.358Z,7.6
2018-03-16T02:36:53.974Z,7.6
2018-03-16T02:37:55.591Z,7.5
2018-03-16T02:38:57.189Z,7.6
2018-03-16T02:39:58.797Z,7.6
2018-03-16T02:41:00.407Z,7.5
2018-03-16T02:42:02.018Z,7.7
2018-03-16T02:43:03.625Z,7.7
2018-03-16T02:44:05.237Z,7.6
2018-03-16T02:45:06.848Z,7.6
2018-03-16T02:46:08.453Z,7.7
2018-03-16T02:47:10.064Z,7.7
2018-03-16T02:48:11.669Z,7.7
2018-03-16T02:49:13.285Z,7.7
2018-03-16T02:50:15.839Z,7.7
2018-03-16T02:51:17.449Z,7.6
2018-03-16T02:52:19.058Z,7.6
2018-03-16T02:53:20.667Z,7.6
2018-03-16T02:54:22.275Z,7.6
2018-03-16T02:55:23.881Z,7.6
2018-03-16T02:56:25.488Z,7.6
2018-03-16T02:57:27.101Z,7.6
2018-03-16T02:58:28.714Z,7.5
2018-03-16T02:59:30.325Z,7.5
2018-03-16T03:00:31.928Z,7.5
2018-03-16T03:01:33.534Z,7.5
2018-03-16T03:02:35.149Z,7.5
2018-03-16T03:03:36.751Z,7.6
2018-03-16T03:04:38.368Z,7.5
2018-03-16T03:05:39.970Z,7.5
2018-03-16T03:06:41.583Z,7.5
2018-03-16T03:07:43.188Z,7.6
2018-03-16T03:08:44.799Z,7.6
2018-03-16T03:09:46.404Z,7.5
2018-03-16T03:10:48.013Z,7.5
2018-03-16T03:11:49.626Z,7.4
2018-03-16T03:12:51.242Z,7.5
2018-03-16T03:13:53.385Z,7.5
2018-03-16T03:14:54.412Z,7.5
2018-03-16T03:15:56.019Z,7.5
2018-03-16T03:16:57.625Z,7.6
2018-03-16T03:17:59.237Z,7.6
2018-03-16T03:19:00.846Z,7.6
2018-03-16T03:20:02.459Z,7.4
2018-03-16T03:21:04.066Z,7.6
2018-03-16T03:22:05.671Z,7.6
2018-03-16T03:23:07.278Z,7.5
2018-03-16T03:24:08.889Z,7.5
2018-03-16T03:25:10.500Z,7.5
2018-03-16T03:26:12.107Z,7.5
2018-03-16T03:27:13.717Z,7.6
2018-03-16T03:28:15.326Z,7.6
2018-03-16T03:29:16.935Z,7.6
2018-03-16T03:30:18.544Z,7.5
2018-03-16T03:31:20.156Z,7.6
2018-03-16T03:32:21.766Z,7.6
2018-03-16T03:33:24.059Z,7.6
2018-03-16T03:34:25.670Z,7.7
2018-03-16T03:35:27.277Z,7.6
2018-03-16T03:36:28.882Z,7.6
2018-03-16T03:37:30.494Z,7.6
2018-03-16T03:38:32.105Z,7.6
2018-03-16T03:39:33.715Z,7.6
2018-03-16T03:40:35.320Z,7.6
2018-03-16T03:41:36.932Z,7.6
2018-03-16T03:42:38.552Z,7.5
2018-03-16T03:43:40.152Z,7.5
2018-03-16T03:44:41.762Z,7.4
2018-03-16T03:45:43.366Z,7.5
2018-03-16T03:46:44.984Z,7.5
2018-03-16T03:47:46.584Z,7.5
2018-03-16T03:48:48.195Z,7.5
2018-03-16T03:49:49.808Z,7.4
2018-03-16T03:50:51.418Z,7.6
2018-03-16T03:51:53.028Z,7.6
2018-03-16T03:52:54.635Z,7.6
2018-03-16T03:53:56.241Z,7.6
2018-03-16T03:54:57.853Z,7.5
2018-03-16T03:55:59.459Z,7.5
2018-03-16T03:57:01.074Z,7.5
2018-03-16T03:58:02.683Z,7.5
2018-03-16T03:59:04.287Z,7.5
2018-03-16T04:00:05.891Z,7.5
2018-03-16T04:01:07.507Z,7.5
2018-03-16T04:02:09.118Z,7.5
2018-03-16T04:03:10.726Z,7.4
2018-03-16T04:04:12.339Z,7.4
2018-03-16T04:05:13.950Z,7.4
2018-03-16T04:06:15.556Z,7.5
2018-03-16T04:07:17.166Z,7.4
2018-03-16T04:08:18.776Z,7.5
2018-03-16T04:09:20.384Z,7.4
2018-03-16T04:10:21.991Z,7.5
2018-03-16T04:11:23.601Z,7.5
2018-03-16T04:12:25.210Z,7.5
2018-03-16T04:13:26.817Z,7.5
2018-03-16T04:14:28.429Z,7.5
2018-03-16T04:15:30.035Z,7.4
2018-03-16T04:16:31.648Z,7.4
2018-03-16T04:17:33.256Z,7.5
2018-03-16T04:18:34.870Z,7.4
2018-03-16T04:19:36.472Z,7.4
2018-03-16T04:20:38.078Z,7.5
2018-03-16T04:21:39.685Z,7.5
2018-03-16T04:22:41.292Z,7.5
2018-03-16T04:23:42.906Z,7.5
2018-03-16T04:24:44.515Z,7.5
2018-03-16T04:25:46.132Z,7.4
2018-03-16T04:26:47.734Z,7.5
2018-03-16T04:27:49.341Z,7.5
2018-03-16T04:28:50.951Z,7.5
2018-03-16T04:29:53.494Z,7.5
2018-03-16T04:30:55.101Z,7.6
2018-03-16T04:31:56.714Z,7.5
2018-03-16T04:32:58.320Z,7.5
2018-03-16T04:33:59.932Z,7.4
2018-03-16T04:35:01.535Z,7.5
2018-03-16T04:36:03.146Z,7.5
2018-03-16T04:37:04.760Z,7.5
2018-03-16T04:38:07.173Z,7.5
2018-03-16T04:39:08.786Z,7.5
2018-03-16T04:40:10.395Z,7.5
2018-03-16T04:41:12.002Z,7.4
2018-03-16T04:42:13.609Z,7.5
2018-03-16T04:43:15.219Z,7.5
2018-03-16T04:44:16.829Z,7.5
2018-03-16T04:45:18.435Z,7.5
2018-03-16T04:46:20.049Z,7.4
2018-03-16T04:47:21.660Z,7.5
2018-03-16T04:48:23.263Z,7.5
2018-03-16T04:49:24.877Z,7.6
2018-03-16T04:50:26.483Z,7.5
2018-03-16T04:51:28.093Z,7.5
2018-03-16T04:52:29.702Z,7.4
2018-03-16T04:53:31.315Z,7.4
2018-03-16T04:54:32.931Z,7.5
2018-03-16T04:55:34.531Z,7.5
2018-03-16T04:56:36.142Z,7.5
2018-03-16T04:57:37.745Z,7.5
2018-03-16T04:58:39.357Z,7.5
2018-03-16T04:59:40.961Z,7.5
2018-03-16T05:00:42.575Z,7.5
2018-03-16T05:01:44.192Z,7.4
2018-03-16T05:02:45.790Z,7.4
2018-03-16T05:03:47.403Z,7.4
2018-03-16T05:04:49.001Z,7.4
2018-03-16T05:05:50.636Z,7.4
2018-03-16T05:06:52.223Z,7.4
2018-03-16T05:07:53.838Z,7.4
2018-03-16T05:08:55.444Z,7.3
2018-03-16T05:09:57.055Z,7.4
2018-03-16T05:10:58.659Z,7.4
2018-03-16T05:12:00.267Z,7.3
2018-03-16T05:13:01.882Z,7.4
2018-03-16T05:14:03.496Z,7.3
2018-03-16T05:15:05.101Z,7.5
2018-03-16T05:16:06.711Z,7.4
2018-03-16T05:17:08.321Z,7.4
2018-03-16T05:18:09.929Z,7.4
2018-03-16T05:19:11.541Z,7.4
2018-03-16T05:20:13.143Z,7.3
2018-03-16T05:21:14.753Z,7.3
2018-03-16T05:22:16.360Z,7.3
2018-03-16T05:23:17.975Z,7.4
2018-03-16T05:24:19.580Z,7.3
2018-03-16T05:25:21.194Z,7.2
2018-03-16T05:26:22.804Z,7.2
2018-03-16T05:27:24.410Z,7.2
2018-03-16T05:28:26.019Z,7.2
2018-03-16T05:29:27.635Z,7.2
2018-03-16T05:30:29.243Z,7.2
2018-03-16T05:31:30.849Z,7.2
2018-03-16T05:32:32.456Z,7.2
2018-03-16T05:33:34.068Z,7.2
2018-03-16T05:34:35.673Z,7.2
2018-03-16T05:35:37.288Z,7.2
2018-03-16T05:36:38.899Z,7.3
2018-03-16T05:37:40.507Z,7.2
2018-03-16T05:38:42.116Z,7.2
2018-03-16T05:39:43.728Z,7.2
2018-03-16T05:40:45.365Z,7.2
2018-03-16T05:41:46.946Z,7.1
2018-03-16T05:42:48.558Z,7.1
2018-03-16T05:43:50.165Z,7.1
2018-03-16T05:44:51.780Z,7.2
2018-03-16T05:45:53.388Z,7.2
2018-03-16T05:46:55.002Z,7.2
2018-03-16T05:47:56.608Z,7.2
2018-03-16T05:48:58.263Z,7.1
2018-03-16T05:50:00.382Z,7.3
2018-03-16T05:51:01.997Z,7.2
2018-03-16T05:52:03.606Z,7.2
2018-03-16T05:53:05.213Z,7.3
2018-03-16T05:54:06.826Z,7.3
2018-03-16T05:55:08.436Z,7.3
2018-03-16T05:56:10.043Z,7.3
2018-03-16T05:57:11.652Z,7.3
2018-03-16T05:58:13.270Z,7.3
2018-03-16T05:59:14.884Z,7.3
2018-03-16T06:00:16.487Z,7.3
2018-03-16T06:01:18.100Z,7.3
2018-03-16T06:02:19.707Z,7.4
2018-03-16T06:03:21.317Z,7.3
2018-03-16T06:04:22.930Z,7.3
2018-03-16T06:05:24.544Z,7.2
2018-03-16T06:06:26.153Z,7.2
2018-03-16T06:07:27.764Z,7.2
2018-03-16T06:08:29.373Z,7.2
2018-03-16T06:09:30.987Z,7.2
2018-03-16T06:10:32.598Z,7.2
2018-03-16T06:11:34.270Z,7.2
2018-03-16T06:12:35.823Z,7.1
2018-03-16T06:13:37.442Z,7.2
2018-03-16T06:14:39.050Z,7.2
2018-03-16T06:15:40.658Z,7.2
2018-03-16T06:16:42.275Z,7.2
2018-03-16T06:17:43.883Z,7.2
2018-03-16T06:18:45.502Z,7.2
2018-03-16T06:19:47.113Z,7.2
2018-03-16T06:20:48.729Z,7.1
2018-03-16T06:21:50.340Z,7.2
2018-03-16T06:22:51.956Z,7.2
2018-03-16T06:23:53.560Z,7.2
2018-03-16T06:24:55.176Z,7.0
2018-03-16T06:25:56.787Z,7.0
2018-03-16T06:26:58.408Z,7.1
2018-03-16T06:28:00.018Z,7.1
2018-03-16T06:29:01.632Z,7.2
2018-03-16T06:30:03.238Z,7.1
2018-03-16T06:31:04.857Z,7.1
2018-03-16T06:32:06.469Z,7.0
2018-03-16T06:33:08.092Z,7.0
2018-03-16T06:34:09.707Z,7.1
2018-03-16T06:35:11.316Z,7.1
2018-03-16T06:36:12.924Z,7.2
2018-03-16T06:37:14.541Z,7.1
2018-03-16T06:38:16.153Z,7.1
2018-03-16T06:39:17.772Z,7.2
2018-03-16T06:40:19.374Z,7.2
2018-03-16T06:41:20.992Z,7.3
2018-03-16T06:42:22.608Z,7.2
2018-03-16T06:43:24.215Z,7.2
2018-03-16T06:44:25.827Z,7.2
2018-03-16T06:45:27.440Z,7.3
2018-03-16T06:46:29.051Z,7.3
2018-03-16T06:47:31.378Z,7.2
2018-03-16T06:48:32.995Z,7.2
2018-03-16T06:49:34.606Z,7.3
2018-03-16T06:50:36.216Z,7.3
2018-03-16T06:51:37.833Z,7.2
2018-03-16T06:52:39.449Z,7.2
2018-03-16T06:53:41.061Z,7.2
2018-03-16T06:54:42.666Z,7.3
2018-03-16T06:55:44.286Z,7.3
2018-03-16T06:56:45.906Z,7.3
2018-03-16T06:57:47.508Z,7.3
2018-03-16T06:58:49.119Z,7.2
2018-03-16T06:59:50.734Z,7.3
2018-03-16T07:00:52.347Z,7.2
2018-03-16T07:01:53.959Z,7.2
2018-03-16T07:02:55.574Z,7.3
2018-03-16T07:03:57.189Z,7.3
2018-03-16T07:04:58.798Z,7.2
2018-03-16T07:06:00.412Z,7.3
2018-03-16T07:07:02.021Z,7.1
2018-03-16T07:08:03.636Z,7.1
2018-03-16T07:09:05.244Z,7.0
2018-03-16T07:10:06.863Z,7.1
2018-03-16T07:11:08.475Z,7.1
2018-03-16T07:12:10.086Z,7.1
2018-03-16T07:13:11.699Z,7.0
2018-03-16T07:14:13.308Z,7.0
2018-03-16T07:15:14.919Z,7.0
2018-03-16T07:16:16.532Z,7.0
2018-03-16T07:17:18.150Z,7.0
2018-03-16T07:18:19.758Z,7.1
2018-03-16T07:19:21.372Z,7.1
2018-03-16T07:20:22.980Z,7.1
2018-03-16T07:21:24.591Z,7.1
2018-03-16T07:22:26.207Z,7.1
2018-03-16T07:23:27.822Z,7.1
2018-03-16T07:24:29.432Z,7.1
2018-03-16T07:25:31.047Z,7.1
2018-03-16T07:26:32.662Z,7.1
2018-03-16T07:27:34.274Z,7.1
2018-03-16T07:28:35.885Z,7.1
2018-03-16T07:29:37.497Z,7.1
2018-03-16T07:30:39.110Z,7.1
2018-03-16T07:31:40.735Z,7.1
2018-03-16T07:32:42.345Z,7.1
2018-03-16T07:33:43.958Z,7.0
2018-03-16T07:34:45.575Z,7.0
2018-03-16T07:35:47.182Z,6.9
2018-03-16T07:36:48.798Z,6.9
2018-03-16T07:37:50.410Z,7.0
2018-03-16T07:38:52.027Z,7.0
2018-03-16T07:39:54.590Z,6.9
2018-03-16T07:40:56.194Z,7.0
2018-03-16T07:41:57.848Z,7.0
2018-03-16T07:42:59.422Z,7.0
2018-03-16T07:44:01.038Z,7.0
2018-03-16T07:45:02.645Z,7.0
2018-03-16T07:46:04.262Z,7.0
2018-03-16T07:47:05.873Z,6.9
2018-03-16T07:48:07.489Z,7.0
2018-03-16T07:49:09.097Z,7.0
2018-03-16T07:50:10.710Z,7.0
2018-03-16T07:51:12.322Z,7.0
2018-03-16T07:52:14.000Z,7.0
2018-03-16T07:53:15.555Z,7.0
2018-03-16T07:54:17.171Z,7.0
2018-03-16T07:55:18.781Z,7.0
2018-03-16T07:56:20.821Z,7.0
2018-03-16T07:57:22.434Z,7.0
2018-03-16T07:58:24.053Z,7.0
2018-03-16T07:59:25.667Z,7.1
2018-03-16T08:00:27.291Z,7.0
2018-03-16T08:01:28.896Z,6.9
2018-03-16T08:02:30.514Z,6.9
2018-03-16T08:03:32.133Z,7.0
2018-03-16T08:04:33.741Z,7.0
2018-03-16T08:05:35.359Z,7.1
2018-03-16T08:06:36.973Z,7.1
2018-03-16T08:07:38.585Z,7.1
2018-03-16T08:08:40.199Z,7.1
2018-03-16T08:09:41.825Z,6.9
2018-03-16T08:10:43.435Z,6.9
2018-03-16T08:11:45.046Z,7.0
2018-03-16T08:12:46.665Z,7.1
2018-03-16T08:13:48.277Z,7.0
2018-03-16T08:14:49.894Z,7.0
2018-03-16T08:15:51.508Z,7.0
2018-03-16T08:16:53.124Z,7.0
2018-03-16T08:17:54.735Z,7.0
2018-03-16T08:18:56.382Z,7.0
2018-03-16T08:19:57.966Z,7.1
2018-03-16T08:20:59.577Z,7.1
2018-03-16T08:22:01.190Z,7.0
2018-03-16T08:23:02.807Z,7.0
2018-03-16T08:24:04.416Z,7.0
2018-03-16T08:25:06.031Z,6.9
2018-03-16T08:26:07.640Z,7.0
2018-03-16T08:27:09.251Z,7.0
2018-03-16T08:28:10.928Z,6.9
2018-03-16T08:29:12.481Z,7.0
2018-03-16T08:30:14.101Z,7.0
2018-03-16T08:31:15.709Z,7.1
2018-03-16T08:32:17.324Z,7.0
2018-03-16T08:33:18.935Z,7.0
2018-03-16T08:34:20.552Z,6.9
2018-03-16T08:35:22.167Z,6.9
2018-03-16T08:36:23.779Z,6.9
2018-03-16T08:37:25.399Z,6.9
2018-03-16T08:38:27.012Z,6.8
2018-03-16T08:39:28.625Z,6.7
2018-03-16T08:40:30.240Z,6.7
2018-03-16T08:41:32.562Z,6.7
2018-03-16T08:42:34.179Z,6.7
2018-03-16T08:43:35.800Z,6.7
2018-03-16T08:44:37.410Z,6.7
2018-03-16T08:45:39.022Z,6.6
2018-03-16T08:46:40.639Z,6.7
2018-03-16T08:47:42.253Z,6.7
2018-03-16T08:48:43.866Z,6.7
2018-03-16T08:49:45.481Z,6.7
2018-03-16T08:50:47.098Z,6.7
2018-03-16T08:51:48.710Z,6.7
2018-03-16T08:52:50.325Z,6.6
2018-03-16T08:53:51.938Z,6.7
2018-03-16T08:54:53.556Z,6.7
2018-03-16T08:55:55.168Z,6.7
2018-03-16T08:56:56.780Z,6.6
2018-03-16T08:57:58.394Z,6.7
2018-03-16T08:59:00.013Z,6.6
2018-03-16T09:00:01.621Z,6.6
2018-03-16T09:01:03.239Z,6.6
2018-03-16T09:02:04.856Z,6.7
2018-03-16T09:03:06.465Z,6.8
2018-03-16T09:04:08.079Z,6.7
2018-03-16T09:05:09.697Z,6.8
2018-03-16T09:06:11.325Z,6.8
2018-03-16T09:07:12.933Z,6.8
2018-03-16T09:08:14.548Z,7.0
2018-03-16T09:09:16.161Z,6.8
2018-03-16T09:10:17.776Z,6.9
2018-03-16T09:11:19.397Z,7.0
2018-03-16T09:12:21.011Z,6.8
2018-03-16T09:13:22.646Z,6.9
2018-03-16T09:14:24.254Z,7.0
2018-03-16T09:15:25.986Z,7.0
2018-03-16T09:16:27.462Z,7.0
2018-03-16T09:17:29.082Z,7.0
2018-03-16T09:18:30.696Z,7.0
2018-03-16T09:19:32.310Z,7.0
2018-03-16T09:20:33.927Z,7.1
2018-03-16T09:21:35.542Z,7.0
2018-03-16T09:22:37.157Z,7.1
2018-03-16T09:23:38.769Z,7.1
2018-03-16T09:24:40.381Z,7.1
2018-03-16T09:25:41.999Z,7.2
2018-03-16T09:26:43.618Z,7.2
2018-03-16T09:27:45.229Z,7.2
2018-03-16T09:28:46.851Z,7.3
2018-03-16T09:29:48.475Z,7.4
2018-03-16T09:30:50.083Z,7.4
2018-03-16T09:31:51.695Z,7.4
2018-03-16T09:32:53.317Z,7.4
2018-03-16T09:33:54.929Z,7.4
2018-03-16T09:34:56.543Z,7.4
2018-03-16T09:35:58.171Z,7.4
2018-03-16T09:36:59.777Z,7.4
2018-03-16T09:38:01.388Z,7.5
2018-03-16T09:39:03.007Z,7.5
2018-03-16T09:40:04.618Z,7.5
2018-03-16T09:41:06.234Z,7.5
2018-03-16T09:42:07.845Z,7.5
2018-03-16T09:43:09.511Z,7.4
2018-03-16T09:44:11.076Z,7.6
2018-03-16T09:45:12.695Z,7.6
2018-03-16T09:46:14.512Z,7.5
2018-03-16T09:47:16.126Z,7.6
2018-03-16T09:48:17.747Z,7.6
2018-03-16T09:49:19.363Z,7.6
2018-03-16T09:50:20.973Z,7.6
2018-03-16T09:51:22.590Z,7.4
2018-03-16T09:52:24.203Z,7.4
2018-03-16T09:53:25.821Z,7.5
2018-03-16T09:54:27.432Z,7.4
2018-03-16T09:55:29.056Z,7.6
2018-03-16T09:56:30.664Z,7.5
2018-03-16T09:57:32.285Z,7.4
2018-03-16T09:58:33.893Z,7.5
2018-03-16T09:59:35.518Z,7.5
2018-03-16T10:00:37.123Z,7.5
2018-03-16T10:01:38.741Z,7.4
2018-03-16T10:02:40.360Z,7.5
2018-03-16T10:03:41.976Z,7.5
2018-03-16T10:04:43.587Z,7.5
2018-03-16T10:05:45.199Z,7.6
2018-03-16T10:06:46.818Z,7.6
2018-03-16T10:07:49.138Z,7.7
2018-03-16T10:08:50.950Z,7.7
2018-03-16T10:09:52.562Z,7.7
2018-03-16T10:10:54.182Z,7.7
2018-03-16T10:11:55.792Z,7.8
2018-03-16T10:12:57.410Z,7.7
2018-03-16T10:13:59.019Z,7.6
2018-03-16T10:15:00.640Z,7.6
2018-03-16T10:16:02.250Z,7.6
2018-03-16T10:17:03.870Z,7.6
2018-03-16T10:18:05.486Z,7.4
2018-03-16T10:19:07.102Z,7.4
2018-03-16T10:20:08.713Z,7.6
2018-03-16T10:21:10.330Z,7.5
2018-03-16T10:22:11.947Z,7.6
2018-03-16T10:23:13.560Z,7.8
2018-03-16T10:24:15.172Z,7.7
2018-03-16T10:25:16.793Z,7.7
2018-03-16T10:26:18.411Z,7.8
2018-03-16T10:27:20.022Z,7.7
2018-03-16T10:28:21.632Z,7.7
2018-03-16T10:29:23.255Z,7.8
2018-03-16T10:30:24.865Z,7.8
2018-03-16T10:31:26.484Z,7.9
2018-03-16T10:32:28.102Z,7.8
2018-03-16T10:33:29.713Z,7.9
2018-03-16T10:34:31.324Z,7.9
2018-03-16T10:35:32.941Z,7.9
2018-03-16T10:36:34.559Z,7.9
2018-03-16T10:37:36.172Z,7.9
2018-03-16T10:38:37.792Z,7.9
2018-03-16T10:39:39.405Z,7.9
2018-03-16T10:40:41.024Z,7.8
2018-03-16T10:41:42.633Z,7.7
2018-03-16T10:42:44.268Z,7.7
2018-03-16T10:43:45.865Z,7.8
2018-03-16T10:44:47.481Z,7.8
2018-03-16T10:45:49.096Z,7.9
2018-03-16T10:46:50.714Z,7.7
2018-03-16T10:47:52.325Z,7.7
2018-03-16T10:48:53.946Z,7.8
2018-03-16T10:49:55.556Z,7.8
2018-03-16T10:50:57.175Z,7.6
2018-03-16T10:51:58.786Z,7.7
2018-03-16T10:53:00.401Z,7.7
2018-03-16T10:54:02.020Z,7.7
2018-03-16T10:55:03.627Z,7.8
2018-03-16T10:56:05.245Z,7.7
2018-03-16T10:57:06.857Z,7.9
2018-03-16T10:58:08.474Z,7.9
2018-03-16T10:59:10.087Z,7.7
2018-03-16T11:00:11.709Z,7.8
2018-03-16T11:01:13.320Z,7.8
2018-03-16T11:02:14.936Z,7.8
2018-03-16T11:03:16.552Z,7.8
2018-03-16T11:04:18.163Z,7.7
2018-03-16T11:05:19.835Z,7.8
2018-03-16T11:06:21.447Z,7.8
2018-03-16T11:07:23.070Z,7.9
2018-03-16T11:08:24.678Z,7.9
2018-03-16T11:09:26.295Z,7.9
2018-03-16T11:10:27.907Z,8.0
2018-03-16T11:11:29.527Z,8.1
2018-03-16T11:12:31.140Z,8.0
2018-03-16T11:13:32.754Z,7.9
2018-03-16T11:14:34.377Z,7.9
2018-03-16T11:15:35.994Z,8.0
2018-03-16T11:16:37.599Z,7.9
2018-03-16T11:17:39.212Z,7.9
2018-03-16T11:18:40.840Z,7.9
2018-03-16T11:19:42.449Z,7.9
2018-03-16T11:20:44.067Z,8.0
2018-03-16T11:21:45.680Z,7.9
2018-03-16T11:22:47.305Z,8.0
2018-03-16T11:23:48.918Z,8.0
2018-03-16T11:24:50.536Z,8.0
2018-03-16T11:25:52.147Z,8.0
2018-03-16T11:26:53.764Z,7.9
2018-03-16T11:27:55.380Z,7.9
2018-03-16T11:28:56.997Z,8.0
2018-03-16T11:29:58.608Z,8.0
2018-03-16T11:31:00.227Z,7.9
2018-03-16T11:32:01.843Z,7.9
2018-03-16T11:33:03.453Z,7.9
2018-03-16T11:34:05.070Z,8.0
2018-03-16T11:35:06.688Z,8.0
2018-03-16T11:36:08.299Z,7.9
2018-03-16T11:37:09.920Z,8.0
2018-03-16T11:38:11.534Z,8.0
2018-03-16T11:39:13.150Z,8.0
2018-03-16T11:40:14.764Z,8.0
2018-03-16T11:41:16.378Z,7.9
2018-03-16T11:42:17.990Z,8.0
2018-03-16T11:43:19.611Z,7.9
2018-03-16T11:44:21.228Z,8.0
2018-03-16T11:45:22.843Z,8.0
2018-03-16T11:46:24.458Z,7.9
2018-03-16T11:47:26.068Z,7.9
2018-03-16T11:48:27.682Z,8.0
2018-03-16T11:49:29.300Z,7.9
2018-03-16T11:50:30.919Z,8.0
2018-03-16T11:51:32.535Z,8.0
2018-03-16T11:52:34.148Z,8.0
2018-03-16T11:53:35.759Z,7.9
2018-03-16T11:54:37.372Z,8.0
2018-03-16T11:55:38.989Z,8.1
2018-03-16T11:56:40.613Z,8.0
2018-03-16T11:57:42.235Z,8.0
2018-03-16T11:58:43.849Z,7.9
2018-03-16T11:59:45.460Z,7.8
2018-03-16T12:00:47.074Z,7.8
2018-03-16T12:01:48.685Z,7.8
2018-03-16T12:02:50.304Z,7.6
2018-03-16T12:03:51.917Z,7.6
2018-03-16T12:04:53.560Z,7.6
2018-03-16T12:05:55.180Z,7.7
2018-03-16T12:06:56.794Z,7.7
2018-03-16T12:07:58.402Z,7.8
2018-03-16T12:09:00.023Z,7.8
2018-03-16T12:10:01.638Z,7.7
2018-03-16T12:11:03.248Z,7.6
2018-03-16T12:12:04.862Z,7.5
2018-03-16T12:13:06.478Z,7.6
2018-03-16T12:14:08.091Z,7.5
2018-03-16T12:15:09.709Z,7.5
2018-03-16T12:16:11.320Z,7.5
2018-03-16T12:17:12.934Z,7.5
2018-03-16T12:18:14.560Z,7.4
2018-03-16T12:19:16.167Z,7.4
2018-03-16T12:20:17.782Z,7.4
2018-03-16T12:21:19.390Z,7.5
2018-03-16T12:22:21.008Z,7.5
2018-03-16T12:23:22.624Z,7.5
2018-03-16T12:24:24.239Z,7.6
2018-03-16T12:25:25.853Z,7.5
2018-03-16T12:26:27.468Z,7.5
2018-03-16T12:27:29.086Z,7.4
2018-03-16T12:28:49.341Z,7.4
2018-03-16T12:29:32.317Z,7.4
2018-03-16T12:30:33.930Z,7.4
2018-03-16T12:31:35.547Z,7.4
2018-03-16T12:32:37.162Z,7.4
2018-03-16T12:33:38.775Z,7.4
2018-03-16T12:34:40.398Z,7.4
2018-03-16T12:35:42.011Z,7.3
2018-03-16T12:36:43.623Z,7.3
2018-03-16T12:37:45.242Z,7.1
2018-03-16T12:38:46.857Z,7.2
2018-03-16T12:39:48.472Z,7.2
2018-03-16T12:40:50.086Z,7.3
2018-03-16T12:41:51.706Z,7.3
2018-03-16T12:42:53.313Z,7.4
2018-03-16T12:43:54.931Z,7.5
2018-03-16T12:44:56.560Z,7.3
2018-03-16T12:45:58.172Z,7.5
2018-03-16T12:46:59.782Z,7.5
2018-03-16T12:48:02.298Z,7.5
2018-03-16T12:49:03.920Z,7.4
2018-03-16T12:50:05.535Z,7.6
2018-03-16T12:51:07.145Z,7.7
2018-03-16T12:52:08.763Z,7.7
2018-03-16T12:53:10.375Z,7.6
2018-03-16T12:54:11.992Z,7.7
2018-03-16T12:55:13.613Z,7.7
2018-03-16T12:56:15.244Z,7.6
2018-03-16T12:57:16.845Z,7.8
2018-03-16T12:58:18.454Z,7.7
2018-03-16T12:59:20.074Z,7.8
2018-03-16T13:00:21.686Z,7.8
2018-03-16T13:01:23.302Z,7.6
2018-03-16T13:02:24.922Z,7.7
2018-03-16T13:03:27.134Z,7.7
2018-03-16T13:04:28.751Z,7.6
2018-03-16T13:05:30.360Z,7.6
2018-03-16T13:06:31.970Z,7.6
2018-03-16T13:07:33.590Z,7.6
2018-03-16T13:08:35.203Z,7.7
2018-03-16T13:09:36.824Z,7.8
2018-03-16T13:10:38.436Z,7.7
2018-03-16T13:11:40.053Z,7.6
2018-03-16T13:12:41.665Z,7.6
2018-03-16T13:13:43.283Z,7.6
2018-03-16T13:14:44.900Z,7.6
2018-03-16T13:15:46.512Z,7.4
2018-03-16T13:16:48.126Z,7.3
2018-03-16T13:17:49.748Z,7.4
2018-03-16T13:18:51.355Z,7.3
2018-03-16T13:19:52.970Z,7.3
2018-03-16T13:20:54.582Z,7.4
2018-03-16T13:21:56.194Z,7.3
2018-03-16T13:22:57.809Z,7.2
2018-03-16T13:23:59.426Z,7.3
2018-03-16T13:25:01.045Z,7.3
2018-03-16T13:26:02.655Z,7.3
2018-03-16T13:27:04.265Z,7.4
2018-03-16T13:28:05.880Z,7.4
2018-03-16T13:29:07.497Z,7.4
2018-03-16T13:30:09.112Z,7.4
2018-03-16T13:31:10.728Z,7.4
2018-03-16T13:32:12.349Z,7.4
2018-03-16T13:33:13.962Z,7.3
2018-03-16T13:34:15.572Z,7.2
2018-03-16T13:35:17.196Z,7.3
2018-03-16T13:36:18.803Z,7.2
2018-03-16T13:37:20.426Z,7.1
2018-03-16T13:38:22.041Z,7.1
2018-03-16T13:39:23.654Z,7.1
2018-03-16T13:40:25.284Z,7.1
2018-03-16T13:41:26.896Z,7.1
2018-03-16T13:42:28.511Z,7.0
2018-03-16T13:43:30.122Z,7.0
2018-03-16T13:44:31.739Z,6.8
2018-03-16T13:45:33.351Z,6.9
2018-03-16T13:46:34.972Z,7.0
2018-03-16T13:47:36.585Z,6.9
2018-03-16T13:48:38.203Z,7.0
2018-03-16T13:49:39.810Z,7.0
2018-03-16T13:50:41.458Z,7.1
2018-03-16T13:51:43.044Z,7.0
2018-03-16T13:52:44.659Z,7.1
2018-03-16T13:53:46.274Z,7.0
2018-03-16T13:54:47.889Z,7.0
2018-03-16T13:55:49.504Z,7.1
2018-03-16T13:56:51.119Z,6.9
2018-03-16T13:57:52.734Z,6.9
2018-03-16T13:58:54.347Z,6.8
2018-03-16T13:59:55.968Z,6.8
2018-03-16T14:00:57.579Z,6.9
2018-03-16T14:01:59.196Z,6.9
2018-03-16T14:03:00.807Z,6.8
2018-03-16T14:04:02.422Z,6.8
2018-03-16T14:05:04.038Z,6.9
2018-03-16T14:06:05.657Z,6.8
2018-03-16T14:07:07.271Z,6.8
2018-03-16T14:08:08.880Z,6.8
2018-03-16T14:09:10.500Z,6.8